SBSL/SLZ METAR and TAF weather

Enter ICAO airport designator
Station Type Date Time Source
SBSL METAR 2020/03/28 08:00 UTC NOAA

SBSL 280800Z 09002KT 9999 SCT004 BKN010 25/25 Q1009


Station Type Date Time Source
SBSL Decoded METAR 2020/03/28 08:00 UTC NOAA

Sao Luiz Aeroporto , Brazil (SBSL) 02-36S 044-14W 53M
Mar 28, 2020 - 04:00 AM EDT / 2020.03.28 0800 UTC
Wind: from the E (090 degrees) at 2 MPH (2 KT):0
Visibility: greater than 7 mile(s):0
Sky conditions: mostly cloudy
Temperature: 77 F (25 C)
Dew Point: 77 F (25 C)
Relative Humidity: 100%
Pressure (altimeter): 29.80 in. Hg (1009 hPa)
ob: SBSL 280800Z 09002KT 9999 SCT004 BKN010 25/25 Q1009
cycle: 8

Station Type Date Time Source
SBSL TAF 2020/03/28 06:21 UTC NOAA

TAF SBSL 280415Z 2806/2906 12005KT 9999 SCT017 TN24/2809Z TX30/2818Z
BECMG 2811/2813 05010KT
BECMG 2814/2816 SCT020 FEW030TCU
TEMPO 2816/2820 35010KT 5000 TSRA SCT020 FEW030CB
BECMG 2820/2822 SCT020
RMK PFV

Example: see airport list